sensor_id;sensor_type;location;lat;lon;timestamp;temperature;humidity
22908;DHT22;11620;50.050;8.690;2022-09-30T00:01:39;10.00;99.90
22908;DHT22;11620;50.050;8.690;2022-09-30T00:04:25;9.90;99.90
22908;DHT22;11620;50.050;8.690;2022-09-30T00:07:11;10.00;99.90
22908;DHT22;11620;50.050;8.690;2022-09-30T00:09:58;10.00;99.90
22908;DHT22;11620;50.050;8.690;2022-09-30T00:12:44;10.00;99.90
22908;DHT22;11620;50.050;8.690;2022-09-30T00:15:31;9.90;99.90
22908;DHT22;11620;50.050;8.690;2022-09-30T00:18:18;9.90;99.90
22908;DHT22;11620;50.050;8.690;2022-09-30T00:21:05;10.00;99.90
22908;DHT22;11620;50.050;8.690;2022-09-30T00:23:51;10.00;99.90
22908;DHT22;11620;50.050;8.690;2022-09-30T00:26:38;9.90;99.90
22908;DHT22;11620;50.050;8.690;2022-09-30T00:29:25;9.90;99.90
22908;DHT22;11620;50.050;8.690;2022-09-30T00:32:11;9.90;99.90
22908;DHT22;11620;50.050;8.690;2022-09-30T00:34:57;9.90;99.90
22908;DHT22;11620;50.050;8.690;2022-09-30T00:37:43;9.80;99.90
22908;DHT22;11620;50.050;8.690;2022-09-30T00:40:30;9.80;99.90
22908;DHT22;11620;50.050;8.690;2022-09-30T00:49:23;9.80;99.90
22908;DHT22;11620;50.050;8.690;2022-09-30T00:52:09;9.70;99.90
22908;DHT22;11620;50.050;8.690;2022-09-30T00:54:57;9.70;99.90
22908;DHT22;11620;50.050;8.690;2022-09-30T00:57:45;9.70;99.90
22908;DHT22;11620;50.050;8.690;2022-09-30T01:00:31;9.70;99.90
22908;DHT22;11620;50.050;8.690;2022-09-30T01:03:18;9.70;99.90
22908;DHT22;11620;50.050;8.690;2022-09-30T01:06:08;9.60;99.90
22908;DHT22;11620;50.050;8.690;2022-09-30T01:08:54;9.60;99.90
22908;DHT22;11620;50.050;8.690;2022-09-30T01:11:43;9.60;99.90
22908;DHT22;11620;50.050;8.690;2022-09-30T01:14:29;9.60;99.90
22908;DHT22;11620;50.050;8.690;2022-09-30T01:26:40;9.50;99.90
22908;DHT22;11620;50.050;8.690;2022-09-30T01:38:48;9.50;99.90
22908;DHT22;11620;50.050;8.690;2022-09-30T01:42:05;9.40;99.90
22908;DHT22;11620;50.050;8.690;2022-09-30T01:51:26;9.40;99.90
22908;DHT22;11620;50.050;8.690;2022-09-30T01:57:21;9.40;99.90
22908;DHT22;11620;50.050;8.690;2022-09-30T02:00:09;9.30;99.90
22908;DHT22;11620;50.050;8.690;2022-09-30T02:03:10;9.30;99.90
22908;DHT22;11620;50.050;8.690;2022-09-30T02:06:10;9.30;99.90
22908;DHT22;11620;50.050;8.690;2022-09-30T02:09:03;9.20;99.90
22908;DHT22;11620;50.050;8.690;2022-09-30T02:11:52;9.20;99.90
22908;DHT22;11620;50.050;8.690;2022-09-30T02:14:44;9.20;99.90
22908;DHT22;11620;50.050;8.690;2022-09-30T02:17:36;9.20;99.90
22908;DHT22;11620;50.050;8.690;2022-09-30T02:20:32;9.10;99.90
22908;DHT22;11620;50.050;8.690;2022-09-30T02:23:41;9.10;99.90
22908;DHT22;11620;50.050;8.690;2022-09-30T02:26:33;9.10;99.90
22908;DHT22;11620;50.050;8.690;2022-09-30T02:29:27;9.10;99.90
22908;DHT22;11620;50.050;8.690;2022-09-30T02:32:24;9.10;99.90
22908;DHT22;11620;50.050;8.690;2022-09-30T02:35:35;9.10;99.90
22908;DHT22;11620;50.050;8.690;2022-09-30T02:38:30;9.10;99.90
22908;DHT22;11620;50.050;8.690;2022-09-30T02:41:23;9.00;99.90
22908;DHT22;11620;50.050;8.690;2022-09-30T02:44:11;9.00;99.90
22908;DHT22;11620;50.050;8.690;2022-09-30T02:47:15;9.00;99.90
22908;DHT22;11620;50.050;8.690;2022-09-30T02:50:14;9.00;99.90
22908;DHT22;11620;50.050;8.690;2022-09-30T02:59:04;8.80;99.90
22908;DHT22;11620;50.050;8.690;2022-09-30T03:01:51;8.80;99.90
22908;DHT22;11620;50.050;8.690;2022-09-30T03:04:39;8.80;99.90
22908;DHT22;11620;50.050;8.690;2022-09-30T03:07:26;8.80;99.90
22908;DHT22;11620;50.050;8.690;2022-09-30T03:10:14;8.80;99.90
22908;DHT22;11620;50.050;8.690;2022-09-30T03:13:15;8.80;99.90
22908;DHT22;11620;50.050;8.690;2022-09-30T03:31:43;8.60;99.90
22908;DHT22;11620;50.050;8.690;2022-09-30T03:35:02;8.60;99.90
22908;DHT22;11620;50.050;8.690;2022-09-30T03:41:06;8.60;99.90
22908;DHT22;11620;50.050;8.690;2022-09-30T03:44:18;8.60;99.90
22908;DHT22;11620;50.050;8.690;2022-09-30T03:47:09;8.60;99.90
22908;DHT22;11620;50.050;8.690;2022-09-30T03:50:03;8.60;99.90
22908;DHT22;11620;50.050;8.690;2022-09-30T03:52:51;8.60;99.90
22908;DHT22;11620;50.050;8.690;2022-09-30T03:55:50;8.50;99.90
22908;DHT22;11620;50.050;8.690;2022-09-30T03:58:41;8.50;99.90
22908;DHT22;11620;50.050;8.690;2022-09-30T04:01:29;8.50;99.90
22908;DHT22;11620;50.050;8.690;2022-09-30T04:04:15;8.50;99.90
22908;DHT22;11620;50.050;8.690;2022-09-30T04:07:02;8.40;99.90
22908;DHT22;11620;50.050;8.690;2022-09-30T04:09:49;8.40;99.90
22908;DHT22;11620;50.050;8.690;2022-09-30T04:12:35;8.40;99.90
22908;DHT22;11620;50.050;8.690;2022-09-30T04:15:21;8.40;99.90
22908;DHT22;11620;50.050;8.690;2022-09-30T04:18:08;8.40;99.90
22908;DHT22;11620;50.050;8.690;2022-09-30T04:20:54;8.40;99.90
22908;DHT22;11620;50.050;8.690;2022-09-30T04:23:41;8.40;99.90
22908;DHT22;11620;50.050;8.690;2022-09-30T04:26:28;8.40;99.90
22908;DHT22;11620;50.050;8.690;2022-09-30T04:29:13;8.40;99.90
22908;DHT22;11620;50.050;8.690;2022-09-30T04:31:58;8.40;99.90
22908;DHT22;11620;50.050;8.690;2022-09-30T04:34:42;8.40;99.90
22908;DHT22;11620;50.050;8.690;2022-09-30T04:37:27;8.30;99.90
22908;DHT22;11620;50.050;8.690;2022-09-30T04:40:12;8.30;99.90
22908;DHT22;11620;50.050;8.690;2022-09-30T04:42:57;8.30;99.90
22908;DHT22;11620;50.050;8.690;2022-09-30T04:45:42;8.30;99.90
22908;DHT22;11620;50.050;8.690;2022-09-30T04:48:28;8.30;99.90
22908;DHT22;11620;50.050;8.690;2022-09-30T04:51:18;8.20;99.90
22908;DHT22;11620;50.050;8.690;2022-09-30T04:54:03;8.20;99.90
22908;DHT22;11620;50.050;8.690;2022-09-30T04:56:48;8.20;99.90
22908;DHT22;11620;50.050;8.690;2022-09-30T04:59:32;8.20;99.90
22908;DHT22;11620;50.050;8.690;2022-09-30T05:02:16;8.20;99.90
22908;DHT22;11620;50.050;8.690;2022-09-30T05:05:01;8.20;99.90
22908;DHT22;11620;50.050;8.690;2022-09-30T05:07:46;8.20;99.90
22908;DHT22;11620;50.050;8.690;2022-09-30T05:10:31;8.10;99.90
22908;DHT22;11620;50.050;8.690;2022-09-30T05:13:15;8.10;99.90
22908;DHT22;11620;50.050;8.690;2022-09-30T05:16:00;8.10;99.90
22908;DHT22;11620;50.050;8.690;2022-09-30T05:18:45;8.10;99.90
22908;DHT22;11620;50.050;8.690;2022-09-30T05:21:30;8.10;99.90
22908;DHT22;11620;50.050;8.690;2022-09-30T05:24:14;8.10;99.90
22908;DHT22;11620;50.050;8.690;2022-09-30T05:26:59;8.00;99.90
22908;DHT22;11620;50.050;8.690;2022-09-30T05:29:44;8.00;99.90
22908;DHT22;11620;50.050;8.690;2022-09-30T05:32:28;8.00;99.90
22908;DHT22;11620;50.050;8.690;2022-09-30T05:35:13;8.00;99.90
22908;DHT22;11620;50.050;8.690;2022-09-30T05:37:59;8.00;99.90
22908;DHT22;11620;50.050;8.690;2022-09-30T05:40:44;8.00;99.90
22908;DHT22;11620;50.050;8.690;2022-09-30T05:43:28;8.00;99.90
22908;DHT22;11620;50.050;8.690;2022-09-30T05:46:14;8.00;99.90
22908;DHT22;11620;50.050;8.690;2022-09-30T05:48:58;8.00;99.90
22908;DHT22;11620;50.050;8.690;2022-09-30T05:51:43;8.00;99.90
22908;DHT22;11620;50.050;8.690;2022-09-30T05:54:27;8.00;99.90
22908;DHT22;11620;50.050;8.690;2022-09-30T05:57:11;8.10;99.90
22908;DHT22;11620;50.050;8.690;2022-09-30T05:59:56;8.00;99.90
22908;DHT22;11620;50.050;8.690;2022-09-30T06:02:41;8.10;99.90
22908;DHT22;11620;50.050;8.690;2022-09-30T06:05:26;8.10;99.90
22908;DHT22;11620;50.050;8.690;2022-09-30T06:08:11;8.10;99.90
22908;DHT22;11620;50.050;8.690;2022-09-30T06:10:56;8.10;99.90
22908;DHT22;11620;50.050;8.690;2022-09-30T06:13:45;8.20;99.90
22908;DHT22;11620;50.050;8.690;2022-09-30T06:16:31;8.30;99.90
22908;DHT22;11620;50.050;8.690;2022-09-30T06:19:15;8.50;99.90
22908;DHT22;11620;50.050;8.690;2022-09-30T06:22:00;8.70;99.90
22908;DHT22;11620;50.050;8.690;2022-09-30T06:24:45;8.80;99.90
22908;DHT22;11620;50.050;8.690;2022-09-30T06:27:29;9.00;99.90
22908;DHT22;11620;50.050;8.690;2022-09-30T06:30:14;9.10;99.90
22908;DHT22;11620;50.050;8.690;2022-09-30T06:32:58;9.20;99.90
22908;DHT22;11620;50.050;8.690;2022-09-30T06:35:43;9.30;99.90
22908;DHT22;11620;50.050;8.690;2022-09-30T06:38:32;9.40;99.90
22908;DHT22;11620;50.050;8.690;2022-09-30T06:41:18;9.40;99.90
22908;DHT22;11620;50.050;8.690;2022-09-30T06:44:03;9.50;99.90
22908;DHT22;11620;50.050;8.690;2022-09-30T06:46:47;9.60;99.90
22908;DHT22;11620;50.050;8.690;2022-09-30T06:49:32;9.80;99.90
22908;DHT22;11620;50.050;8.690;2022-09-30T06:52:18;9.80;99.90
22908;DHT22;11620;50.050;8.690;2022-09-30T06:55:03;9.90;99.90
22908;DHT22;11620;50.050;8.690;2022-09-30T06:57:48;10.00;99.90
22908;DHT22;11620;50.050;8.690;2022-09-30T07:00:33;10.00;99.90
22908;DHT22;11620;50.050;8.690;2022-09-30T07:03:23;10.20;99.90
22908;DHT22;11620;50.050;8.690;2022-09-30T07:06:08;10.30;99.90
22908;DHT22;11620;50.050;8.690;2022-09-30T07:08:53;10.40;99.90
22908;DHT22;11620;50.050;8.690;2022-09-30T07:11:40;10.40;99.90
22908;DHT22;11620;50.050;8.690;2022-09-30T07:14:25;10.40;99.90
22908;DHT22;11620;50.050;8.690;2022-09-30T07:17:09;10.40;99.90
22908;DHT22;11620;50.050;8.690;2022-09-30T07:19:54;10.50;99.90
22908;DHT22;11620;50.050;8.690;2022-09-30T07:22:39;10.50;99.90
22908;DHT22;11620;50.050;8.690;2022-09-30T07:25:24;10.50;99.90
22908;DHT22;11620;50.050;8.690;2022-09-30T07:28:08;10.60;99.90
22908;DHT22;11620;50.050;8.690;2022-09-30T07:30:54;10.60;99.90
22908;DHT22;11620;50.050;8.690;2022-09-30T07:33:39;10.50;99.90
22908;DHT22;11620;50.050;8.690;2022-09-30T07:36:25;10.60;99.90
22908;DHT22;11620;50.050;8.690;2022-09-30T07:39:15;10.60;99.90
22908;DHT22;11620;50.050;8.690;2022-09-30T07:42:00;10.70;99.90
22908;DHT22;11620;50.050;8.690;2022-09-30T07:44:46;10.70;99.90
22908;DHT22;11620;50.050;8.690;2022-09-30T07:47:31;10.80;99.90
22908;DHT22;11620;50.050;8.690;2022-09-30T07:50:15;11.00;99.90
22908;DHT22;11620;50.050;8.690;2022-09-30T07:53:00;11.10;99.90
22908;DHT22;11620;50.050;8.690;2022-09-30T07:55:45;11.10;99.90
22908;DHT22;11620;50.050;8.690;2022-09-30T07:58:29;11.20;99.90
22908;DHT22;11620;50.050;8.690;2022-09-30T08:01:14;11.40;99.90
22908;DHT22;11620;50.050;8.690;2022-09-30T08:04:02;11.60;99.90
22908;DHT22;11620;50.050;8.690;2022-09-30T08:06:50;11.70;99.90
22908;DHT22;11620;50.050;8.690;2022-09-30T08:09:34;12.00;99.90
22908;DHT22;11620;50.050;8.690;2022-09-30T08:12:18;12.50;99.90
22908;DHT22;11620;50.050;8.690;2022-09-30T08:15:03;12.60;99.90
22908;DHT22;11620;50.050;8.690;2022-09-30T08:17:49;12.90;99.90
22908;DHT22;11620;50.050;8.690;2022-09-30T08:20:33;13.20;99.90
22908;DHT22;11620;50.050;8.690;2022-09-30T08:23:18;13.40;99.90
22908;DHT22;11620;50.050;8.690;2022-09-30T08:26:05;13.60;99.90
22908;DHT22;11620;50.050;8.690;2022-09-30T08:28:49;14.00;99.90
22908;DHT22;11620;50.050;8.690;2022-09-30T08:31:34;14.20;99.90
22908;DHT22;11620;50.050;8.690;2022-09-30T08:34:18;14.00;99.90
22908;DHT22;11620;50.050;8.690;2022-09-30T08:37:03;14.30;99.90
22908;DHT22;11620;50.050;8.690;2022-09-30T08:39:48;14.60;99.90
22908;DHT22;11620;50.050;8.690;2022-09-30T08:45:36;15.00;99.90
22908;DHT22;11620;50.050;8.690;2022-09-30T08:51:51;15.40;99.90
22908;DHT22;11620;50.050;8.690;2022-09-30T08:54:35;15.70;99.90
22908;DHT22;11620;50.050;8.690;2022-09-30T08:57:22;16.10;99.90
22908;DHT22;11620;50.050;8.690;2022-09-30T09:00:11;16.30;99.90
22908;DHT22;11620;50.050;8.690;2022-09-30T09:02:57;16.50;99.90
22908;DHT22;11620;50.050;8.690;2022-09-30T09:06:05;16.60;99.90
22908;DHT22;11620;50.050;8.690;2022-09-30T09:12:07;17.20;99.90
22908;DHT22;11620;50.050;8.690;2022-09-30T09:18:41;17.50;99.90
22908;DHT22;11620;50.050;8.690;2022-09-30T09:24:20;17.80;99.90
22908;DHT22;11620;50.050;8.690;2022-09-30T09:27:29;18.20;99.90
22908;DHT22;11620;50.050;8.690;2022-09-30T09:30:18;18.40;99.90
22908;DHT22;11620;50.050;8.690;2022-09-30T09:33:17;18.60;99.90
22908;DHT22;11620;50.050;8.690;2022-09-30T09:36:13;18.60;99.90
22908;DHT22;11620;50.050;8.690;2022-09-30T09:39:08;18.80;99.90
22908;DHT22;11620;50.050;8.690;2022-09-30T09:42:30;19.00;99.90
22908;DHT22;11620;50.050;8.690;2022-09-30T09:45:25;19.30;99.90
22908;DHT22;11620;50.050;8.690;2022-09-30T09:48:12;19.30;99.90
22908;DHT22;11620;50.050;8.690;2022-09-30T09:51:02;19.50;99.90
22908;DHT22;11620;50.050;8.690;2022-09-30T09:53:53;19.80;99.90
22908;DHT22;11620;50.050;8.690;2022-09-30T09:56:42;19.80;99.90
22908;DHT22;11620;50.050;8.690;2022-09-30T09:59:27;19.50;99.90
22908;DHT22;11620;50.050;8.690;2022-09-30T10:02:27;19.70;99.90
22908;DHT22;11620;50.050;8.690;2022-09-30T10:05:22;20.40;99.90
22908;DHT22;11620;50.050;8.690;2022-09-30T10:08:19;20.30;99.90
22908;DHT22;11620;50.050;8.690;2022-09-30T10:11:06;20.00;99.90
22908;DHT22;11620;50.050;8.690;2022-09-30T10:13:56;20.40;99.90
22908;DHT22;11620;50.050;8.690;2022-09-30T10:16:41;20.80;99.90
22908;DHT22;11620;50.050;8.690;2022-09-30T10:19:28;21.10;99.90
22908;DHT22;11620;50.050;8.690;2022-09-30T10:28:00;21.30;99.90
22908;DHT22;11620;50.050;8.690;2022-09-30T10:30:49;21.50;99.90
22908;DHT22;11620;50.050;8.690;2022-09-30T10:33:43;21.50;99.90
22908;DHT22;11620;50.050;8.690;2022-09-30T10:36:34;21.70;99.90
22908;DHT22;11620;50.050;8.690;2022-09-30T10:39:28;21.90;99.90
22908;DHT22;11620;50.050;8.690;2022-09-30T10:42:29;21.80;99.90
22908;DHT22;11620;50.050;8.690;2022-09-30T10:48:06;21.50;99.90
22908;DHT22;11620;50.050;8.690;2022-09-30T10:50:52;21.80;99.90
22908;DHT22;11620;50.050;8.690;2022-09-30T10:53:41;21.30;99.90
22908;DHT22;11620;50.050;8.690;2022-09-30T10:56:42;21.80;99.90
22908;DHT22;11620;50.050;8.690;2022-09-30T10:59:46;21.60;99.90
22908;DHT22;11620;50.050;8.690;2022-09-30T11:05:42;21.40;99.90
22908;DHT22;11620;50.050;8.690;2022-09-30T11:08:52;21.80;99.90
22908;DHT22;11620;50.050;8.690;2022-09-30T11:11:42;21.90;99.90
22908;DHT22;11620;50.050;8.690;2022-09-30T11:14:34;21.90;99.90
22908;DHT22;11620;50.050;8.690;2022-09-30T11:18:06;22.20;99.90
22908;DHT22;11620;50.050;8.690;2022-09-30T11:20:34;22.50;99.90
22908;DHT22;11620;50.050;8.690;2022-09-30T11:23:39;22.30;99.90
22908;DHT22;11620;50.050;8.690;2022-09-30T11:27:11;22.20;99.90
22908;DHT22;11620;50.050;8.690;2022-09-30T11:32:55;22.50;99.90
22908;DHT22;11620;50.050;8.690;2022-09-30T11:42:05;22.60;99.90
22908;DHT22;11620;50.050;8.690;2022-09-30T11:48:27;22.90;99.90
22908;DHT22;11620;50.050;8.690;2022-09-30T11:51:35;22.90;99.90
22908;DHT22;11620;50.050;8.690;2022-09-30T11:54:35;23.00;99.90
22908;DHT22;11620;50.050;8.690;2022-09-30T11:57:30;22.80;99.90
22908;DHT22;11620;50.050;8.690;2022-09-30T12:00:18;22.40;99.90
22908;DHT22;11620;50.050;8.690;2022-09-30T12:06:03;22.00;99.90
22908;DHT22;11620;50.050;8.690;2022-09-30T12:08:55;22.00;99.90
22908;DHT22;11620;50.050;8.690;2022-09-30T12:14:32;22.30;99.90
22908;DHT22;11620;50.050;8.690;2022-09-30T12:23:44;23.50;99.90
22908;DHT22;11620;50.050;8.690;2022-09-30T12:26:29;23.60;99.90
22908;DHT22;11620;50.050;8.690;2022-09-30T12:29:18;23.30;99.90
22908;DHT22;11620;50.050;8.690;2022-09-30T12:48:50;20.90;99.90
22908;DHT22;11620;50.050;8.690;2022-09-30T12:51:35;21.50;99.90
22908;DHT22;11620;50.050;8.690;2022-09-30T12:57:17;22.40;99.90
22908;DHT22;11620;50.050;8.690;2022-09-30T13:00:15;22.70;99.90
22908;DHT22;11620;50.050;8.690;2022-09-30T13:03:14;22.70;99.90
22908;DHT22;11620;50.050;8.690;2022-09-30T13:06:03;22.70;99.90
22908;DHT22;11620;50.050;8.690;2022-09-30T13:14:42;22.30;99.90
22908;DHT22;11620;50.050;8.690;2022-09-30T13:17:29;22.10;99.90
22908;DHT22;11620;50.050;8.690;2022-09-30T13:23:49;22.20;99.90
22908;DHT22;11620;50.050;8.690;2022-09-30T13:26:38;22.60;99.90
22908;DHT22;11620;50.050;8.690;2022-09-30T13:29:26;22.80;99.90
22908;DHT22;11620;50.050;8.690;2022-09-30T13:32:30;21.70;99.90
22908;DHT22;11620;50.050;8.690;2022-09-30T13:35:34;21.60;99.90
22908;DHT22;11620;50.050;8.690;2022-09-30T13:38:33;21.10;99.90
22908;DHT22;11620;50.050;8.690;2022-09-30T13:41:22;21.00;99.90
22908;DHT22;11620;50.050;8.690;2022-09-30T13:44:18;21.10;99.90
22908;DHT22;11620;50.050;8.690;2022-09-30T13:47:17;21.40;99.90
22908;DHT22;11620;50.050;8.690;2022-09-30T13:50:52;20.80;99.90
22908;DHT22;11620;50.050;8.690;2022-09-30T13:53:32;20.40;99.90
22908;DHT22;11620;50.050;8.690;2022-09-30T13:56:29;20.80;99.90
22908;DHT22;11620;50.050;8.690;2022-09-30T13:59:30;21.20;99.90
22908;DHT22;11620;50.050;8.690;2022-09-30T14:12:17;21.00;99.90
22908;DHT22;11620;50.050;8.690;2022-09-30T14:15:19;21.10;99.90
22908;DHT22;11620;50.050;8.690;2022-09-30T14:18:36;20.80;99.90
22908;DHT22;11620;50.050;8.690;2022-09-30T14:21:42;20.90;99.90
22908;DHT22;11620;50.050;8.690;2022-09-30T14:24:32;21.00;99.90
22908;DHT22;11620;50.050;8.690;2022-09-30T14:30:24;21.30;99.90
22908;DHT22;11620;50.050;8.690;2022-09-30T14:33:21;21.00;99.90
22908;DHT22;11620;50.050;8.690;2022-09-30T14:36:15;20.60;99.90
22908;DHT22;11620;50.050;8.690;2022-09-30T14:39:02;20.10;99.90
22908;DHT22;11620;50.050;8.690;2022-09-30T14:41:55;20.10;99.90
22908;DHT22;11620;50.050;8.690;2022-09-30T14:44:42;20.40;99.90
22908;DHT22;11620;50.050;8.690;2022-09-30T14:47:30;20.60;99.90
22908;DHT22;11620;50.050;8.690;2022-09-30T14:50:24;20.50;99.90
22908;DHT22;11620;50.050;8.690;2022-09-30T14:53:29;20.50;99.90
22908;DHT22;11620;50.050;8.690;2022-09-30T14:56:27;20.00;99.90
22908;DHT22;11620;50.050;8.690;2022-09-30T14:59:19;19.90;99.90
22908;DHT22;11620;50.050;8.690;2022-09-30T15:02:17;19.80;99.90
22908;DHT22;11620;50.050;8.690;2022-09-30T15:05:12;19.80;99.90
22908;DHT22;11620;50.050;8.690;2022-09-30T15:07:59;19.50;99.90
22908;DHT22;11620;50.050;8.690;2022-09-30T15:10:50;19.50;99.90
22908;DHT22;11620;50.050;8.690;2022-09-30T15:13:39;19.60;99.90
22908;DHT22;11620;50.050;8.690;2022-09-30T15:16:28;19.50;99.90
22908;DHT22;11620;50.050;8.690;2022-09-30T15:22:12;19.40;99.90
22908;DHT22;11620;50.050;8.690;2022-09-30T15:24:59;19.50;99.90
22908;DHT22;11620;50.050;8.690;2022-09-30T15:27:46;19.30;99.90
22908;DHT22;11620;50.050;8.690;2022-09-30T15:30:32;19.20;99.90
22908;DHT22;11620;50.050;8.690;2022-09-30T15:33:22;19.20;99.90
22908;DHT22;11620;50.050;8.690;2022-09-30T15:36:15;19.20;99.90
22908;DHT22;11620;50.050;8.690;2022-09-30T15:39:02;19.00;99.90
22908;DHT22;11620;50.050;8.690;2022-09-30T15:41:50;19.00;99.90
22908;DHT22;11620;50.050;8.690;2022-09-30T15:44:38;19.00;99.90
22908;DHT22;11620;50.050;8.690;2022-09-30T15:47:25;19.00;99.90
22908;DHT22;11620;50.050;8.690;2022-09-30T15:59:04;18.50;99.90
22908;DHT22;11620;50.050;8.690;2022-09-30T16:01:55;18.50;99.90
22908;DHT22;11620;50.050;8.690;2022-09-30T16:04:41;18.20;99.90
22908;DHT22;11620;50.050;8.690;2022-09-30T16:07:29;17.90;99.90
22908;DHT22;11620;50.050;8.690;2022-09-30T16:10:18;18.00;99.90
22908;DHT22;11620;50.050;8.690;2022-09-30T16:13:06;17.60;99.90
22908;DHT22;11620;50.050;8.690;2022-09-30T16:15:53;17.50;99.90
22908;DHT22;11620;50.050;8.690;2022-09-30T16:18:42;17.60;99.90
22908;DHT22;11620;50.050;8.690;2022-09-30T16:21:46;17.40;99.90
22908;DHT22;11620;50.050;8.690;2022-09-30T16:27:25;17.40;99.90
22908;DHT22;11620;50.050;8.690;2022-09-30T16:30:16;17.30;99.90
22908;DHT22;11620;50.050;8.690;2022-09-30T16:33:04;17.50;99.90
22908;DHT22;11620;50.050;8.690;2022-09-30T16:35:51;17.30;99.90
22908;DHT22;11620;50.050;8.690;2022-09-30T16:38:37;17.50;99.90
22908;DHT22;11620;50.050;8.690;2022-09-30T16:41:24;17.50;99.90
22908;DHT22;11620;50.050;8.690;2022-09-30T16:44:11;17.30;99.90
22908;DHT22;11620;50.050;8.690;2022-09-30T16:46:57;17.30;99.90
22908;DHT22;11620;50.050;8.690;2022-09-30T16:49:46;17.30;99.90
22908;DHT22;11620;50.050;8.690;2022-09-30T16:52:33;17.50;99.90
22908;DHT22;11620;50.050;8.690;2022-09-30T16:55:19;17.50;99.90
22908;DHT22;11620;50.050;8.690;2022-09-30T16:58:08;17.60;99.90
22908;DHT22;11620;50.050;8.690;2022-09-30T17:00:56;17.70;99.90
22908;DHT22;11620;50.050;8.690;2022-09-30T17:03:45;17.60;99.90
22908;DHT22;11620;50.050;8.690;2022-09-30T17:06:32;17.60;99.90
22908;DHT22;11620;50.050;8.690;2022-09-30T17:09:19;17.60;99.90
22908;DHT22;11620;50.050;8.690;2022-09-30T17:12:06;17.50;99.90
22908;DHT22;11620;50.050;8.690;2022-09-30T17:14:52;17.40;99.90
22908;DHT22;11620;50.050;8.690;2022-09-30T17:17:39;17.20;99.90
22908;DHT22;11620;50.050;8.690;2022-09-30T17:20:25;17.10;99.90
22908;DHT22;11620;50.050;8.690;2022-09-30T17:23:12;17.10;99.90
22908;DHT22;11620;50.050;8.690;2022-09-30T17:25:58;17.00;99.90
22908;DHT22;11620;50.050;8.690;2022-09-30T17:28:44;16.90;99.90
22908;DHT22;11620;50.050;8.690;2022-09-30T17:31:31;16.90;99.90
22908;DHT22;11620;50.050;8.690;2022-09-30T17:34:17;16.90;99.90
22908;DHT22;11620;50.050;8.690;2022-09-30T17:37:03;16.90;99.90
22908;DHT22;11620;50.050;8.690;2022-09-30T17:39:50;16.80;99.90
22908;DHT22;11620;50.050;8.690;2022-09-30T17:42:36;16.80;99.90
22908;DHT22;11620;50.050;8.690;2022-09-30T17:45:43;16.80;99.90
22908;DHT22;11620;50.050;8.690;2022-09-30T17:48:31;16.70;99.90
22908;DHT22;11620;50.050;8.690;2022-09-30T17:51:17;16.70;99.90
22908;DHT22;11620;50.050;8.690;2022-09-30T17:54:05;16.60;99.90
22908;DHT22;11620;50.050;8.690;2022-09-30T17:56:52;16.60;99.90
22908;DHT22;11620;50.050;8.690;2022-09-30T17:59:38;16.50;99.90
22908;DHT22;11620;50.050;8.690;2022-09-30T18:02:25;16.50;99.90
22908;DHT22;11620;50.050;8.690;2022-09-30T18:05:11;16.40;99.90
22908;DHT22;11620;50.050;8.690;2022-09-30T18:07:59;16.30;99.90
22908;DHT22;11620;50.050;8.690;2022-09-30T18:10:46;16.30;99.90
22908;DHT22;11620;50.050;8.690;2022-09-30T18:13:32;16.20;99.90
22908;DHT22;11620;50.050;8.690;2022-09-30T18:16:18;16.10;99.90
22908;DHT22;11620;50.050;8.690;2022-09-30T18:19:05;16.10;99.90
22908;DHT22;11620;50.050;8.690;2022-09-30T18:21:52;15.90;99.90
22908;DHT22;11620;50.050;8.690;2022-09-30T18:24:41;15.80;99.90
22908;DHT22;11620;50.050;8.690;2022-09-30T18:27:55;15.80;99.90
22908;DHT22;11620;50.050;8.690;2022-09-30T18:30:42;15.70;99.90
22908;DHT22;11620;50.050;8.690;2022-09-30T18:33:28;15.60;99.90
22908;DHT22;11620;50.050;8.690;2022-09-30T18:36:15;15.50;99.90
22908;DHT22;11620;50.050;8.690;2022-09-30T18:39:04;15.30;99.90
22908;DHT22;11620;50.050;8.690;2022-09-30T18:41:50;15.20;99.90
22908;DHT22;11620;50.050;8.690;2022-09-30T18:44:37;15.20;99.90
22908;DHT22;11620;50.050;8.690;2022-09-30T18:47:23;15.10;99.90
22908;DHT22;11620;50.050;8.690;2022-09-30T18:50:12;15.00;99.90
22908;DHT22;11620;50.050;8.690;2022-09-30T18:52:58;15.00;99.90
22908;DHT22;11620;50.050;8.690;2022-09-30T18:55:48;14.90;99.90
22908;DHT22;11620;50.050;8.690;2022-09-30T18:58:34;14.90;99.90
22908;DHT22;11620;50.050;8.690;2022-09-30T19:01:21;14.60;99.90
22908;DHT22;11620;50.050;8.690;2022-09-30T19:04:09;14.50;99.90
22908;DHT22;11620;50.050;8.690;2022-09-30T19:06:56;14.50;99.90
22908;DHT22;11620;50.050;8.690;2022-09-30T19:09:42;14.50;99.90
22908;DHT22;11620;50.050;8.690;2022-09-30T19:12:35;14.40;99.90
22908;DHT22;11620;50.050;8.690;2022-09-30T19:15:21;14.30;99.90
22908;DHT22;11620;50.050;8.690;2022-09-30T19:18:08;14.30;99.90
22908;DHT22;11620;50.050;8.690;2022-09-30T19:20:55;14.40;99.90
22908;DHT22;11620;50.050;8.690;2022-09-30T19:23:42;14.40;99.90
22908;DHT22;11620;50.050;8.690;2022-09-30T19:26:29;14.40;99.90
22908;DHT22;11620;50.050;8.690;2022-09-30T19:29:16;14.30;99.90
22908;DHT22;11620;50.050;8.690;2022-09-30T19:32:03;14.30;99.90
22908;DHT22;11620;50.050;8.690;2022-09-30T19:34:50;14.30;99.90
22908;DHT22;11620;50.050;8.690;2022-09-30T19:37:40;14.30;99.90
22908;DHT22;11620;50.050;8.690;2022-09-30T19:40:28;14.30;99.90
22908;DHT22;11620;50.050;8.690;2022-09-30T19:43:17;14.20;99.90
22908;DHT22;11620;50.050;8.690;2022-09-30T19:46:05;14.30;99.90
22908;DHT22;11620;50.050;8.690;2022-09-30T19:48:52;14.20;99.90
22908;DHT22;11620;50.050;8.690;2022-09-30T19:51:38;14.20;99.90
22908;DHT22;11620;50.050;8.690;2022-09-30T19:54:24;14.00;99.90
22908;DHT22;11620;50.050;8.690;2022-09-30T19:57:11;13.90;99.90
22908;DHT22;11620;50.050;8.690;2022-09-30T19:59:58;13.80;99.90
22908;DHT22;11620;50.050;8.690;2022-09-30T20:02:44;13.80;99.90
22908;DHT22;11620;50.050;8.690;2022-09-30T20:05:30;13.80;99.90
22908;DHT22;11620;50.050;8.690;2022-09-30T20:08:17;13.70;99.90
22908;DHT22;11620;50.050;8.690;2022-09-30T20:13:54;13.40;99.90
22908;DHT22;11620;50.050;8.690;2022-09-30T20:17:00;13.20;99.90
22908;DHT22;11620;50.050;8.690;2022-09-30T20:19:47;13.20;99.90
22908;DHT22;11620;50.050;8.690;2022-09-30T20:22:53;13.20;99.90
22908;DHT22;11620;50.050;8.690;2022-09-30T20:25:42;13.10;99.90
22908;DHT22;11620;50.050;8.690;2022-09-30T20:28:29;13.00;99.90
22908;DHT22;11620;50.050;8.690;2022-09-30T20:31:15;12.90;99.90
22908;DHT22;11620;50.050;8.690;2022-09-30T20:34:02;12.80;99.90
22908;DHT22;11620;50.050;8.690;2022-09-30T20:36:48;12.70;99.90
22908;DHT22;11620;50.050;8.690;2022-09-30T20:39:34;12.70;99.90
22908;DHT22;11620;50.050;8.690;2022-09-30T20:42:24;12.70;99.90
22908;DHT22;11620;50.050;8.690;2022-09-30T20:45:14;12.60;99.90
22908;DHT22;11620;50.050;8.690;2022-09-30T20:48:03;12.70;99.90